createdAt,value
2018-10-21T00:01:13.235Z,98537.36
2018-10-21T00:03:40.116Z,98530.50
2018-10-21T00:06:07.012Z,98532.91
2018-10-21T00:08:33.925Z,98523.42
2018-10-21T00:11:00.813Z,98521.31
2018-10-21T00:13:27.700Z,98516.34
2018-10-21T00:15:54.600Z,98507.67
2018-10-21T00:18:21.518Z,98509.49
2018-10-21T00:20:48.413Z,98509.20
2018-10-21T00:23:15.310Z,98514.23
2018-10-21T00:25:42.204Z,98512.92
2018-10-21T00:28:09.130Z,98507.37
2018-10-21T00:30:36.017Z,98509.72
2018-10-21T00:33:02.973Z,98514.16
2018-10-21T00:35:29.852Z,98511.03
2018-10-21T00:37:56.769Z,98511.54
2018-10-21T00:40:23.666Z,98508.91
2018-10-21T00:42:50.569Z,98504.98
2018-10-21T00:45:17.468Z,98507.09
2018-10-21T00:47:44.361Z,98505.48
2018-10-21T00:50:11.841Z,98508.11
2018-10-21T00:52:38.744Z,98514.67
2018-10-21T00:55:05.638Z,98507.82
2018-10-21T00:57:32.529Z,98508.63
2018-10-21T00:59:59.457Z,98514.39
2018-10-21T01:02:26.369Z,98514.39
2018-10-21T01:04:53.282Z,98518.33
2018-10-21T01:07:20.196Z,98518.84
2018-10-21T01:09:47.103Z,98512.56
2018-10-21T01:12:13.996Z,98511.77
2018-10-21T01:14:40.889Z,98515.92
2018-10-21T01:17:07.807Z,98514.09
2018-10-21T01:19:34.751Z,98516.21
2018-10-21T01:22:01.662Z,98514.09
2018-10-21T01:24:28.569Z,98512.78
2018-10-21T01:26:55.494Z,98514.09
2018-10-21T01:29:22.382Z,98511.98
2018-10-21T01:31:49.264Z,98514.09
2018-10-21T01:34:16.177Z,98514.09
2018-10-21T01:36:43.132Z,98513.30
2018-10-21T01:39:11.471Z,98515.92
2018-10-21T01:41:38.364Z,98515.41
2018-10-21T01:44:05.264Z,98508.53
2018-10-21T01:46:32.169Z,98505.09
2018-10-21T01:48:59.051Z,98505.09
2018-10-21T01:51:25.978Z,98502.47
2018-10-21T01:53:52.887Z,98500.36
2018-10-21T01:56:19.781Z,98504.30
2018-10-21T01:58:46.664Z,98499.05
2018-10-21T02:01:13.557Z,98500.36
2018-10-21T02:03:40.477Z,98506.92
2018-10-21T02:06:07.374Z,98516.63
2018-10-21T02:08:34.295Z,98515.31
2018-10-21T02:11:01.180Z,98517.42
2018-10-21T02:13:28.060Z,98514.52
2018-10-21T02:15:54.956Z,98511.89
2018-10-21T02:18:21.846Z,98504.01
2018-10-21T02:20:48.758Z,98504.01
2018-10-21T02:23:15.662Z,98489.56
2018-10-21T02:25:42.567Z,98484.31
2018-10-21T02:28:09.505Z,98496.12
2018-10-21T02:30:36.411Z,98502.70
2018-10-21T02:33:03.336Z,98509.77
2018-10-21T02:35:30.242Z,98509.77
2018-10-21T02:37:57.846Z,98502.41
2018-10-21T02:40:24.741Z,98497.16
2018-10-21T02:42:51.633Z,98498.66
2018-10-21T02:45:18.574Z,98486.66
2018-10-21T02:47:45.449Z,98474.84
2018-10-21T02:50:12.333Z,98476.66
2018-10-21T02:52:39.241Z,98487.16
2018-10-21T02:55:06.132Z,98494.23
2018-10-21T02:57:33.034Z,98500.80
2018-10-21T02:59:59.957Z,98512.62
2018-10-21T03:02:26.849Z,98511.78
2018-10-21T03:04:53.764Z,98513.09
2018-10-21T03:07:20.669Z,98519.98
2018-10-21T03:09:47.587Z,98516.56
2018-10-21T03:12:14.477Z,98514.92
2018-10-21T03:14:41.365Z,98513.61
2018-10-21T03:17:08.379Z,98512.30
2018-10-21T03:19:35.285Z,98527.25
2018-10-21T03:22:02.205Z,98532.31
2018-10-21T03:24:29.114Z,98541.69
2018-10-21T03:26:56.058Z,98546.43
2018-10-21T03:29:22.912Z,98533.81
2018-10-21T03:31:49.834Z,98534.61
2018-10-21T03:34:16.721Z,98538.55
2018-10-21T03:36:43.627Z,98535.13
2018-10-21T03:39:11.174Z,98531.70
2018-10-21T03:41:38.085Z,98529.08
2018-10-21T03:44:05.002Z,98530.39
2018-10-21T03:46:31.906Z,98522.22
2018-10-21T03:48:58.805Z,98521.71
2018-10-21T03:51:25.692Z,98525.64
2018-10-21T03:53:52.581Z,98516.45
2018-10-21T03:56:19.478Z,98522.22
2018-10-21T03:58:46.361Z,98523.53
2018-10-21T04:01:13.278Z,98527.47
2018-10-21T04:03:40.173Z,98526.16
2018-10-21T04:06:07.059Z,98523.24
2018-10-21T04:08:33.953Z,98521.42
2018-10-21T04:11:00.841Z,98532.72
2018-10-21T04:13:27.729Z,98535.86
2018-10-21T04:15:54.638Z,98536.66
2018-10-21T04:18:21.546Z,98544.25
2018-10-21T04:20:48.429Z,98535.06
2018-10-21T04:23:15.327Z,98535.57
2018-10-21T04:25:42.221Z,98528.20
2018-10-21T04:28:09.791Z,98530.83
2018-10-21T04:30:37.846Z,98533.45
2018-10-21T04:34:09.901Z,98536.37
2018-10-21T04:36:36.799Z,98528.20
2018-10-21T04:39:03.886Z,98527.18
2018-10-21T04:41:30.791Z,98526.09
2018-10-21T04:43:57.713Z,98522.15
2018-10-21T04:46:24.664Z,98521.34
2018-10-21T04:48:51.529Z,98520.03
2018-10-21T04:51:18.430Z,98519.52
2018-10-21T04:53:45.321Z,98516.61
2018-10-21T04:56:12.217Z,98511.36
2018-10-21T04:58:39.108Z,98506.63
2018-10-21T05:01:05.997Z,98507.93
2018-10-21T05:03:32.886Z,98503.48
2018-10-21T05:05:59.811Z,98500.06
2018-10-21T05:08:26.744Z,98508.73
2018-10-21T05:10:53.645Z,98512.38
2018-10-21T05:13:20.545Z,98517.92
2018-10-21T05:15:47.434Z,98525.51
2018-10-21T05:18:14.327Z,98525.51
2018-10-21T05:20:41.241Z,98536.81
2018-10-21T05:23:08.149Z,98533.90
2018-10-21T05:25:35.043Z,98534.19
2018-10-21T05:28:02.032Z,98526.53
2018-10-21T05:30:28.905Z,98532.58
2018-10-21T05:32:55.797Z,98529.67
2018-10-21T05:35:22.698Z,98526.53
2018-10-21T05:37:49.682Z,98519.17
2018-10-21T05:40:20.795Z,98528.64
2018-10-21T05:42:48.006Z,98523.62
2018-10-21T05:45:14.901Z,98528.13
2018-10-21T05:47:42.209Z,98526.53
2018-10-21T05:50:09.318Z,98519.97
2018-10-21T05:52:36.324Z,98519.68
2018-10-21T05:55:03.227Z,98515.23
2018-10-21T05:57:30.139Z,98521.50
2018-10-21T05:59:57.061Z,98525.44
2018-10-21T06:02:23.990Z,98526.24
2018-10-21T06:04:50.885Z,98523.62
2018-10-21T06:07:17.786Z,98532.00
2018-10-21T06:09:44.693Z,98528.58
2018-10-21T06:12:11.586Z,98534.62
2018-10-21T06:14:38.489Z,98541.99
2018-10-21T06:17:35.837Z,98542.50
2018-10-21T06:20:07.023Z,98546.44
2018-10-21T06:22:42.741Z,98550.09
2018-10-21T06:25:10.385Z,98554.31
2018-10-21T06:27:37.473Z,98555.63
2018-10-21T06:30:04.361Z,98556.14
2018-10-21T06:32:31.248Z,98565.84
2018-10-21T06:34:58.147Z,98572.69
2018-10-21T06:37:25.045Z,98570.58
2018-10-21T06:39:52.206Z,98579.04
2018-10-21T06:42:19.108Z,98576.63
2018-10-21T06:44:46.025Z,98576.13
2018-10-21T06:47:12.927Z,98577.66
2018-10-21T06:49:39.818Z,98586.33
2018-10-21T06:52:06.715Z,98585.82
2018-10-21T06:54:33.613Z,98584.00
2018-10-21T06:57:00.608Z,98585.82
2018-10-21T06:59:27.434Z,98581.88
2018-10-21T07:01:54.325Z,98585.02
2018-10-21T07:04:21.244Z,98592.61
2018-10-21T07:06:48.240Z,98593.70
2018-10-21T07:09:15.124Z,98590.56
2018-10-21T07:11:42.036Z,98595.52
2018-10-21T07:14:08.916Z,98592.09
2018-10-21T07:16:36.021Z,98595.81
2018-10-21T07:19:02.769Z,98596.32
2018-10-21T07:21:29.673Z,98596.61
2018-10-21T07:23:56.561Z,98592.38
2018-10-21T07:26:23.450Z,98595.52
2018-10-21T07:28:50.349Z,98596.83
2018-10-21T07:31:17.255Z,98597.64
2018-10-21T07:33:44.167Z,98597.34
2018-10-21T07:36:11.124Z,98601.58
2018-10-21T07:38:37.994Z,98596.83
2018-10-21T07:41:04.880Z,98599.45
2018-10-21T07:43:31.783Z,98602.08
2018-10-21T07:45:59.006Z,98608.64
2018-10-21T07:48:25.874Z,98606.02
2018-10-21T07:50:52.864Z,98612.59
2018-10-21T07:53:19.782Z,98611.56
2018-10-21T07:55:46.717Z,98611.78
2018-10-21T07:58:13.706Z,98611.56
2018-10-21T08:00:40.589Z,98602.59
2018-10-21T08:03:07.790Z,98614.70
2018-10-21T08:05:34.677Z,98612.88
2018-10-21T08:08:01.582Z,98610.54
2018-10-21T08:10:28.485Z,98618.12
2018-10-21T08:12:55.376Z,98615.80
2018-10-21T08:15:22.337Z,98620.02
2018-10-21T08:17:49.228Z,98612.66
2018-10-21T08:20:16.126Z,98612.66
2018-10-21T08:22:43.020Z,98615.58
2018-10-21T08:25:09.914Z,98611.13
2018-10-21T08:27:36.843Z,98615.36
2018-10-21T08:30:03.738Z,98613.39
2018-10-21T08:32:30.645Z,98616.12
2018-10-21T08:34:57.538Z,98615.50
2018-10-21T08:37:24.438Z,98615.50
2018-10-21T08:39:51.337Z,98617.03
2018-10-21T08:42:18.233Z,98609.66
2018-10-21T08:44:45.120Z,98605.73
2018-10-21T08:47:12.015Z,98607.84
2018-10-21T08:49:38.945Z,98610.25
2018-10-21T08:52:05.909Z,98607.84
2018-10-21T08:54:32.748Z,98611.08
2018-10-21T08:56:59.663Z,98606.63
2018-10-21T08:59:26.573Z,98608.23
2018-10-21T09:01:53.482Z,98608.53
2018-10-21T09:04:20.379Z,98607.22
2018-10-21T09:06:47.265Z,98608.02
2018-10-21T09:09:14.181Z,98603.38
2018-10-21T09:11:41.543Z,98608.63
2018-10-21T09:14:08.538Z,98601.05
2018-10-21T09:16:35.448Z,98600.83
2018-10-21T09:19:02.404Z,98605.56
2018-10-21T09:21:29.297Z,98604.55
2018-10-21T09:23:56.181Z,98603.01
2018-10-21T09:26:23.075Z,98600.16
2018-10-21T09:28:49.965Z,98602.60
2018-10-21T09:31:16.946Z,98599.75
2018-10-21T09:33:43.782Z,98597.93
2018-10-21T09:36:10.687Z,98601.06
2018-10-21T09:38:37.596Z,98604.56
2018-10-21T09:41:04.587Z,98612.73
2018-10-21T09:43:31.484Z,98607.77
2018-10-21T09:45:58.435Z,98594.93
2018-10-21T09:48:25.358Z,98597.05
2018-10-21T09:50:52.269Z,98596.31
2018-10-21T09:53:19.165Z,98603.17
2018-10-21T09:55:46.056Z,98598.23
2018-10-21T09:58:13.105Z,98586.48
2018-10-21T10:00:45.172Z,98587.58
2018-10-21T10:03:12.085Z,98581.30
2018-10-21T10:05:38.986Z,98580.56
2018-10-21T10:08:05.900Z,98570.05
2018-10-21T10:10:32.792Z,98570.92
2018-10-21T10:12:59.695Z,98567.27
2018-10-21T10:15:26.597Z,98565.25
2018-10-21T10:17:53.562Z,98563.95
2018-10-21T10:20:20.484Z,98563.27
2018-10-21T10:22:47.376Z,98555.91
2018-10-21T10:25:14.379Z,98560.64
2018-10-21T10:27:41.493Z,98554.43
2018-10-21T10:30:09.430Z,98548.38
2018-10-21T10:32:36.319Z,98542.67
2018-10-21T10:35:03.210Z,98546.61
2018-10-21T10:37:30.129Z,98553.28
2018-10-21T10:39:57.079Z,98539.63
2018-10-21T10:42:23.992Z,98541.80
2018-10-21T10:44:50.858Z,98538.16
2018-10-21T10:47:17.762Z,98537.41
2018-10-21T10:49:44.673Z,98529.59
2018-10-21T10:52:11.685Z,98533.31
2018-10-21T10:54:38.542Z,98525.52
2018-10-21T10:57:05.433Z,98528.72
2018-10-21T10:59:32.374Z,98524.27
2018-10-21T11:01:59.237Z,98519.30
2018-10-21T11:04:26.116Z,98515.92
2018-10-21T11:06:53.018Z,98510.67
2018-10-21T11:09:19.919Z,98518.33
2018-10-21T11:11:46.833Z,98511.02
2018-10-21T11:14:13.734Z,98518.16
2018-10-21T11:16:40.660Z,98511.17
2018-10-21T11:19:07.558Z,98512.25
2018-10-21T11:21:34.624Z,98514.69
2018-10-21T11:24:01.494Z,98515.48
2018-10-21T11:26:28.670Z,98509.27
2018-10-21T11:28:55.583Z,98510.34
2018-10-21T11:31:22.478Z,98514.80
2018-10-21T11:33:49.390Z,98510.13
2018-10-21T11:36:16.275Z,98506.27
2018-10-21T11:38:43.166Z,98497.30
2018-10-21T11:41:10.093Z,98503.92
2018-10-21T11:43:36.983Z,98500.03
2018-10-21T11:46:04.055Z,98499.30
2018-10-21T11:48:30.920Z,98499.58
2018-10-21T11:50:57.851Z,98495.92
2018-10-21T11:53:24.758Z,98494.66
2018-10-21T11:55:51.649Z,98497.67
2018-10-21T11:58:18.591Z,98501.04
2018-10-21T12:00:46.417Z,98501.09
2018-10-21T12:03:13.544Z,98499.50
2018-10-21T12:05:41.097Z,98493.03
2018-10-21T12:08:08.022Z,98492.75
2018-10-21T12:10:35.706Z,98495.95
2018-10-21T12:13:02.614Z,98488.34
2018-10-21T12:15:29.507Z,98489.66
2018-10-21T12:17:56.397Z,98488.62
2018-10-21T12:20:23.373Z,98484.73
2018-10-21T12:22:50.315Z,98488.77
2018-10-21T12:25:17.287Z,98484.02
2018-10-21T12:27:44.117Z,98488.25
2018-10-21T12:30:11.017Z,98487.45
2018-10-21T12:32:37.948Z,98486.48
2018-10-21T12:35:04.856Z,98488.36
2018-10-21T12:37:31.765Z,98482.81
2018-10-21T12:39:58.652Z,98480.93
2018-10-21T12:42:25.558Z,98479.39
2018-10-21T12:44:52.465Z,98473.15
2018-10-21T12:47:19.354Z,98482.94
2018-10-21T12:49:46.250Z,98481.60
2018-10-21T12:52:13.202Z,98474.42
2018-10-21T12:54:40.165Z,98475.11
2018-10-21T12:57:06.969Z,98476.48
2018-10-21T12:59:33.897Z,98478.17
2018-10-21T13:02:00.781Z,98476.27
2018-10-21T13:04:27.669Z,98478.91
2018-10-21T13:06:54.554Z,98479.37
2018-10-21T13:09:21.440Z,98480.42
2018-10-21T13:11:48.335Z,98472.20
2018-10-21T13:14:15.233Z,98468.48
2018-10-21T13:16:42.135Z,98468.16
2018-10-21T13:19:09.091Z,98469.28
2018-10-21T13:21:35.968Z,98462.91
2018-10-21T13:24:02.866Z,98463.06
2018-10-21T13:26:29.761Z,98464.44
2018-10-21T13:28:56.754Z,98459.83
2018-10-21T13:31:23.613Z,98460.34
2018-10-21T13:33:50.527Z,98463.55
2018-10-21T13:36:17.418Z,98463.50
2018-10-21T13:38:44.323Z,98457.47
2018-10-21T13:41:11.250Z,98458.36
2018-10-21T13:43:38.160Z,98458.02
2018-10-21T13:46:05.151Z,98459.50
2018-10-21T13:48:31.993Z,98459.50
2018-10-21T13:50:58.894Z,98454.70
2018-10-21T13:53:25.801Z,98460.76
2018-10-21T13:55:52.713Z,98449.58
2018-10-21T13:58:19.615Z,98451.18
2018-10-21T14:00:46.630Z,98450.84
2018-10-21T14:03:13.697Z,98444.66
2018-10-21T14:05:40.589Z,98447.91
2018-10-21T14:08:07.484Z,98440.77
2018-10-21T14:10:34.389Z,98443.16
2018-10-21T14:13:01.359Z,98440.53
2018-10-21T14:15:28.283Z,98437.39
2018-10-21T14:17:55.188Z,98441.42
2018-10-21T14:20:22.093Z,98433.24
2018-10-21T14:22:48.980Z,98426.16
2018-10-21T14:25:15.879Z,98428.55
2018-10-21T14:27:42.804Z,98437.19
2018-10-21T14:30:10.054Z,98426.16
2018-10-21T14:32:36.898Z,98422.20
2018-10-21T14:35:03.810Z,98427.75
2018-10-21T14:37:30.729Z,98416.14
2018-10-21T14:39:57.617Z,98418.03
2018-10-21T14:42:24.493Z,98416.71
2018-10-21T14:44:51.385Z,98419.58
2018-10-21T14:47:18.331Z,98416.34
2018-10-21T14:49:45.226Z,98407.66
2018-10-21T14:52:12.135Z,98415.34
2018-10-21T14:54:39.016Z,98412.72
2018-10-21T14:57:05.999Z,98412.40
2018-10-21T14:59:32.850Z,98408.69
2018-10-21T15:01:59.764Z,98406.57
2018-10-21T15:04:26.656Z,98411.31
2018-10-21T15:06:53.897Z,98405.48
2018-10-21T15:09:20.828Z,98401.26
2018-10-21T15:11:47.709Z,98399.42
2018-10-21T15:14:14.623Z,98403.89
2018-10-21T15:16:41.761Z,98402.29
2018-10-21T15:19:08.710Z,98398.86
2018-10-21T15:21:35.819Z,98403.03
2018-10-21T15:24:02.965Z,98403.84
2018-10-21T15:26:30.018Z,98402.80
2018-10-21T15:28:57.035Z,98397.49
2018-10-21T15:31:23.939Z,98399.84
2018-10-21T15:33:50.824Z,98399.32
2018-10-21T15:36:17.718Z,98395.33
2018-10-21T15:38:44.634Z,98397.64
2018-10-21T15:41:11.529Z,98391.02
2018-10-21T15:43:38.417Z,98399.70
2018-10-21T15:46:05.345Z,98396.78
2018-10-21T15:48:32.281Z,98390.45
2018-10-21T15:50:59.201Z,98389.31
2018-10-21T15:53:26.085Z,98386.91
2018-10-21T15:55:53.039Z,98389.53
2018-10-21T15:58:19.985Z,98394.52
2018-10-21T16:00:46.883Z,98391.80
2018-10-21T16:03:13.802Z,98392.31
2018-10-21T16:05:40.716Z,98393.34
2018-10-21T16:08:07.654Z,98397.86
2018-10-21T16:10:34.530Z,98393.86
2018-10-21T16:13:01.429Z,98397.00
2018-10-21T16:15:28.336Z,98397.75
2018-10-21T16:17:55.224Z,98401.41
2018-10-21T16:20:22.104Z,98405.86
2018-10-21T16:22:48.988Z,98406.09
2018-10-21T16:25:16.304Z,98408.41
2018-10-21T16:27:43.273Z,98405.49
2018-10-21T16:30:11.190Z,98408.41
2018-10-21T16:32:38.218Z,98410.47
2018-10-21T16:35:05.025Z,98409.86
2018-10-21T16:37:31.987Z,98415.64
2018-10-21T16:39:58.840Z,98420.38
2018-10-21T16:42:25.737Z,98420.38
2018-10-21T16:44:52.629Z,98423.75
2018-10-21T16:47:19.511Z,98422.44
2018-10-21T16:49:46.416Z,98423.75
2018-10-21T16:52:13.306Z,98421.87
2018-10-21T16:54:40.331Z,98406.30
2018-10-21T16:57:07.158Z,98425.02
2018-10-21T16:59:34.092Z,98423.41
2018-10-21T17:02:01.001Z,98425.52
2018-10-21T17:04:27.899Z,98428.38
2018-10-21T17:06:54.824Z,98428.09
2018-10-21T17:09:21.845Z,98429.41
2018-10-21T17:11:48.637Z,98429.41
2018-10-21T17:14:15.610Z,98429.64
2018-10-21T17:16:42.502Z,98432.78
2018-10-21T17:19:09.677Z,98430.67
2018-10-21T17:21:36.595Z,98434.61
2018-10-21T17:24:03.517Z,98426.72
2018-10-21T17:26:30.405Z,98427.75
2018-10-21T17:28:57.330Z,98422.50
2018-10-21T17:31:24.232Z,98420.06
2018-10-21T17:33:51.129Z,98423.20
2018-10-21T17:36:18.047Z,98426.16
2018-10-21T17:38:44.955Z,98426.86
2018-10-21T17:41:11.867Z,98420.80
2018-10-21T17:43:38.762Z,98419.20
2018-10-21T17:46:05.691Z,98415.55
2018-10-21T17:48:32.568Z,98406.34
2018-10-21T17:50:59.467Z,98416.06
2018-10-21T17:53:26.362Z,98421.03
2018-10-21T17:55:53.249Z,98415.78
2018-10-21T17:58:20.217Z,98416.29
2018-10-21T18:00:47.102Z,98421.03
2018-10-21T18:03:13.993Z,98418.63
2018-10-21T18:05:40.885Z,98422.58
2018-10-21T18:08:07.788Z,98423.09
2018-10-21T18:10:34.732Z,98424.41
2018-10-21T18:13:01.671Z,98422.29
2018-10-21T18:15:28.540Z,98424.92
2018-10-21T18:17:55.476Z,98419.89
2018-10-21T18:20:22.376Z,98423.83
2018-10-21T18:22:49.305Z,98426.69
2018-10-21T18:25:16.261Z,98424.06
2018-10-21T18:27:43.150Z,98419.60
2018-10-21T18:30:10.597Z,98420.12
2018-10-21T18:32:37.535Z,98416.17
2018-10-21T18:35:04.424Z,98421.66
2018-10-21T18:37:31.323Z,98420.63
2018-10-21T18:39:58.263Z,98425.59
2018-10-21T18:42:25.229Z,98422.69
2018-10-21T18:44:52.189Z,98421.38
2018-10-21T18:47:19.077Z,98424.00
2018-10-21T18:49:45.990Z,98420.77
2018-10-21T18:52:12.968Z,98423.20
2018-10-21T18:54:39.777Z,98422.08
2018-10-21T18:57:06.700Z,98423.71
2018-10-21T18:59:33.609Z,98423.91
2018-10-21T19:02:00.515Z,98421.80
2018-10-21T19:04:27.434Z,98423.11
2018-10-21T19:06:54.422Z,98423.63
2018-10-21T19:09:21.317Z,98422.31
2018-10-21T19:11:48.214Z,98428.36
2018-10-21T19:14:15.117Z,98422.59
2018-10-21T19:16:42.013Z,98420.19
2018-10-21T19:19:09.066Z,98424.14
2018-10-21T19:21:35.928Z,98424.14
2018-10-21T19:24:02.821Z,98433.84
2018-10-21T19:26:29.718Z,98435.16
2018-10-21T19:28:56.617Z,98428.81
2018-10-21T19:31:23.512Z,98429.33
2018-10-21T19:33:50.435Z,98423.56
2018-10-21T19:36:17.338Z,98426.48
2018-10-21T19:38:44.245Z,98429.84
2018-10-21T19:41:11.141Z,98426.93
2018-10-21T19:43:38.161Z,98430.64
2018-10-21T19:46:05.048Z,98433.27
2018-10-21T19:48:31.953Z,98432.47
2018-10-21T19:50:58.904Z,98425.33
2018-10-21T19:53:25.802Z,98428.47
2018-10-21T19:55:52.690Z,98427.45
2018-10-21T19:58:19.573Z,98431.61
2018-10-21T20:00:46.493Z,98422.93
2018-10-21T20:03:13.387Z,98436.35
2018-10-21T20:05:40.353Z,98423.44
2018-10-21T20:08:07.236Z,98423.73
2018-10-21T20:10:34.135Z,98423.16
2018-10-21T20:13:01.170Z,98426.58
2018-10-21T20:15:28.073Z,98417.67
2018-10-21T20:17:54.975Z,98427.39
2018-10-21T20:20:21.878Z,98427.09
2018-10-21T20:22:48.785Z,98422.36
2018-10-21T20:25:15.700Z,98426.30
2018-10-21T20:27:42.596Z,98428.63
2018-10-21T20:30:09.713Z,98422.87
2018-10-21T20:32:36.704Z,98430.75
2018-10-21T20:35:03.601Z,98427.33
2018-10-21T20:37:30.490Z,98426.02
2018-10-21T20:39:57.500Z,98425.69
2018-10-21T20:42:24.414Z,98427.01
2018-10-21T20:44:51.304Z,98431.46
2018-10-21T20:47:18.215Z,98433.28
2018-10-21T20:49:45.163Z,98436.42
2018-10-21T20:52:12.084Z,98439.86
2018-10-21T20:54:44.329Z,98433.00
2018-10-21T20:57:11.730Z,98435.91
2018-10-21T20:59:39.894Z,98436.66
2018-10-21T21:02:07.182Z,98431.39
2018-10-21T21:04:34.073Z,98430.88
2018-10-21T21:07:00.978Z,98425.63
2018-10-21T21:09:27.874Z,98430.37
2018-10-21T21:11:54.824Z,98431.39
2018-10-21T21:14:21.700Z,98427.69
2018-10-21T21:16:48.580Z,98429.28
2018-10-21T21:19:15.561Z,98431.39
2018-10-21T21:21:42.482Z,98435.56
2018-10-21T21:24:09.440Z,98435.56
2018-10-21T21:26:36.313Z,98439.22
2018-10-21T21:29:03.203Z,98440.81
2018-10-21T21:31:30.114Z,98441.33
2018-10-21T21:33:57.041Z,98450.53
2018-10-21T21:36:23.927Z,98441.05
2018-10-21T21:38:50.850Z,98441.55
2018-10-21T21:41:17.746Z,98433.67
2018-10-21T21:43:44.645Z,98428.94
2018-10-21T21:46:11.627Z,98430.25
2018-10-21T21:48:38.437Z,98409.63
2018-10-21T21:51:05.346Z,98436.02
2018-10-21T21:53:32.256Z,98426.82
2018-10-21T21:55:59.183Z,98426.02
2018-10-21T21:58:26.071Z,98425.51
2018-10-21T22:00:52.957Z,98424.42
2018-10-21T22:03:19.849Z,98427.84
2018-10-21T22:05:46.729Z,98422.30
2018-10-21T22:08:13.684Z,98421.00
2018-10-21T22:10:40.573Z,98424.94
2018-10-21T22:13:07.474Z,98428.88
2018-10-21T22:15:34.370Z,98417.34
2018-10-21T22:18:01.303Z,98421.51
2018-10-21T22:20:28.195Z,98419.91
2018-10-21T22:22:55.086Z,98419.39
2018-10-21T22:25:22.014Z,98423.33
2018-10-21T22:27:48.908Z,98423.05
2018-10-21T22:30:15.852Z,98418.08
2018-10-21T22:32:42.742Z,98421.22
2018-10-21T22:35:10.048Z,98412.53
2018-10-21T22:37:37.022Z,98417.79
2018-10-21T22:40:03.941Z,98421.41
2018-10-21T22:42:30.854Z,98416.99
2018-10-21T22:44:57.777Z,98418.30
2018-10-21T22:47:24.670Z,98419.62
2018-10-21T22:49:51.559Z,98417.98
2018-10-21T22:52:18.746Z,98418.30
2018-10-21T22:54:45.600Z,98421.73
2018-10-21T22:57:19.664Z,98414.56
2018-10-21T22:59:48.014Z,98417.70
2018-10-21T23:02:15.372Z,98413.25
2018-10-21T23:04:42.283Z,98417.70
2018-10-21T23:07:09.170Z,98414.56
2018-10-21T23:09:36.052Z,98413.47
2018-10-21T23:12:03.003Z,98412.96
2018-10-21T23:14:29.914Z,98410.33
2018-10-21T23:16:56.824Z,98405.08
2018-10-21T23:19:23.722Z,98408.22
2018-10-21T23:21:50.627Z,98415.30
2018-10-21T23:24:17.564Z,98412.96
2018-10-21T23:26:44.421Z,98419.52
2018-10-21T23:29:11.309Z,98410.33
2018-10-21T23:31:38.227Z,98409.02
2018-10-21T23:34:05.150Z,98405.59
2018-10-21T23:36:32.036Z,98402.97
2018-10-21T23:38:58.969Z,98398.52
2018-10-21T23:41:25.866Z,98404.56
2018-10-21T23:43:52.756Z,98400.34
2018-10-21T23:46:19.664Z,98399.09
2018-10-21T23:48:46.561Z,98396.98
2018-10-21T23:51:13.460Z,98398.80
2018-10-21T23:53:40.366Z,98381.44
2018-10-21T23:56:07.264Z,98381.95
2018-10-21T23:58:34.145Z,98381.16
